Harp Township, Illinois
Current Conditions -  °F | °C
As of 10:35 PM on Wednesday 26 Nov 2014 (Local Time) from KAAA Reporting Station
Overcast Overcast  
Wind Chill: -7°   Ceiling: 5000
Heat Index: -2°   Visibility: 7mi
Dew Point: -4°   Wind: 8mph
Humidity: 88%   Direction: 10°N
Pressure: 30.21"   Gusts: NA
Location:  40.143°N, 88.9637°W
Report Text: KAAA 270435Z AUTO 01007KT 7SM SCT028 BKN050 OVC065 M02/M04 A3021 RMK AO2 T10221040
Loading
Personal Weather Stations






























Interactive Weather Map New forecast layout! Learn more

10-Day Weather Forecast

Advertisements
Track Severe Weather on mobile